createdAt,value
2023-05-20T00:00:11.140Z,1.30
2023-05-20T00:01:13.207Z,0.73
2023-05-20T00:02:15.925Z,0.90
2023-05-20T00:03:18.362Z,0.80
2023-05-20T00:04:20.541Z,0.87
2023-05-20T00:05:22.529Z,2.60
2023-05-20T00:06:24.504Z,0.80
2023-05-20T00:07:26.599Z,1.00
2023-05-20T00:08:28.431Z,1.07
2023-05-20T00:09:30.290Z,1.00
2023-05-20T00:10:32.168Z,0.97
2023-05-20T00:11:34.120Z,0.93
2023-05-20T00:12:36.042Z,0.80
2023-05-20T00:13:39.142Z,0.73
2023-05-20T00:14:41.005Z,0.87
2023-05-20T00:15:43.049Z,0.80
2023-05-20T00:16:45.013Z,1.03
2023-05-20T00:17:46.972Z,0.90
2023-05-20T00:18:48.905Z,0.80
2023-05-20T00:19:51.084Z,0.80
2023-05-20T00:20:54.453Z,0.80
2023-05-20T00:21:57.945Z,0.80
2023-05-20T00:23:00.037Z,0.70
2023-05-20T00:24:01.929Z,0.70
2023-05-20T00:25:04.205Z,0.77
2023-05-20T00:26:06.092Z,0.70
2023-05-20T00:27:07.981Z,1.00
2023-05-20T00:28:09.931Z,0.70
2023-05-20T00:29:11.886Z,1.23
2023-05-20T00:30:14.117Z,1.00
2023-05-20T00:31:16.086Z,1.10
2023-05-20T00:32:18.096Z,0.67
2023-05-20T00:33:20.047Z,1.10
2023-05-20T00:34:21.942Z,0.87
2023-05-20T00:35:23.899Z,0.90
2023-05-20T00:36:25.840Z,0.73
2023-05-20T00:37:28.137Z,0.70
2023-05-20T00:38:30.002Z,1.30
2023-05-20T00:39:31.960Z,0.83
2023-05-20T00:40:33.809Z,1.02
2023-05-20T00:41:36.079Z,0.90
2023-05-20T00:42:37.963Z,0.70
2023-05-20T00:43:39.888Z,0.70
2023-05-20T00:44:41.937Z,1.47
2023-05-20T00:45:43.904Z,0.80
2023-05-20T00:46:48.122Z,0.87
2023-05-20T00:47:50.098Z,0.90
2023-05-20T00:48:52.747Z,0.60
2023-05-20T00:49:54.949Z,0.80
2023-05-20T00:50:56.851Z,0.97
2023-05-20T00:51:59.028Z,0.97
2023-05-20T00:53:01.574Z,0.90
2023-05-20T00:54:03.783Z,0.60
2023-05-20T00:55:06.122Z,1.90
2023-05-20T00:56:09.096Z,0.80
2023-05-20T00:57:11.866Z,0.80
2023-05-20T00:58:14.207Z,0.70
2023-05-20T00:59:16.736Z,0.80
2023-05-20T01:01:19.526Z,0.77
2023-05-20T01:02:22.143Z,0.67
2023-05-20T01:03:24.219Z,0.80
2023-05-20T01:04:26.919Z,0.70
2023-05-20T01:05:28.827Z,0.77
2023-05-20T01:06:30.946Z,0.97
2023-05-20T01:07:34.036Z,0.80
2023-05-20T01:08:36.022Z,0.70
2023-05-20T01:09:37.895Z,0.90
2023-05-20T01:10:47.240Z,0.70
2023-05-20T01:11:59.289Z,0.80
2023-05-20T01:13:10.089Z,0.97
2023-05-20T01:14:16.511Z,0.80
2023-05-20T01:15:21.657Z,0.93
2023-05-20T01:16:25.164Z,1.33
2023-05-20T01:17:31.277Z,0.80
2023-05-20T01:18:34.969Z,0.53
2023-05-20T01:19:45.384Z,0.70
2023-05-20T01:20:54.012Z,0.83
2023-05-20T01:21:57.866Z,0.70
2023-05-20T01:23:00.066Z,0.80
2023-05-20T01:24:02.701Z,0.90
2023-05-20T01:25:05.336Z,0.77
2023-05-20T01:26:08.357Z,0.77
2023-05-20T01:27:13.854Z,2.57
2023-05-20T01:28:17.982Z,0.80
2023-05-20T01:29:20.180Z,0.70
2023-05-20T01:30:22.577Z,0.90
2023-05-20T01:31:32.621Z,0.83
2023-05-20T01:32:50.473Z,0.63
2023-05-20T01:33:58.542Z,0.73
2023-05-20T01:35:02.108Z,0.70
2023-05-20T01:36:06.559Z,0.70
2023-05-20T01:37:10.567Z,0.97
2023-05-20T01:38:15.908Z,1.50
2023-05-20T01:39:18.239Z,0.70
2023-05-20T01:40:21.621Z,0.70
2023-05-20T01:41:26.943Z,0.70
2023-05-20T01:42:29.656Z,0.80
2023-05-20T01:43:32.097Z,0.73
2023-05-20T01:44:34.230Z,0.77
2023-05-20T01:45:36.621Z,0.70
2023-05-20T01:46:38.681Z,0.50
2023-05-20T01:47:40.907Z,0.77
2023-05-20T01:48:43.143Z,0.53
2023-05-20T01:49:46.625Z,0.90
2023-05-20T01:50:48.766Z,0.70
2023-05-20T01:51:50.671Z,0.70
2023-05-20T01:52:52.811Z,0.83
2023-05-20T01:53:54.713Z,0.90
2023-05-20T01:54:56.854Z,0.70
2023-05-20T01:55:58.836Z,0.70
2023-05-20T01:57:01.929Z,0.77
2023-05-20T01:58:03.867Z,0.77
2023-05-20T01:59:05.864Z,0.73
2023-05-20T02:00:09.692Z,0.80
2023-05-20T02:01:11.687Z,0.70
2023-05-20T02:02:14.737Z,0.80
2023-05-20T02:03:16.809Z,0.70
2023-05-20T02:04:19.277Z,0.57
2023-05-20T02:05:21.333Z,0.70
2023-05-20T02:06:23.163Z,0.60
2023-05-20T02:07:25.030Z,0.70
2023-05-20T02:08:26.865Z,0.60
2023-05-20T02:09:28.807Z,0.60
2023-05-20T02:10:30.660Z,0.73
2023-05-20T02:11:32.440Z,0.60
2023-05-20T02:12:34.511Z,0.60
2023-05-20T02:13:36.486Z,0.57
2023-05-20T02:14:38.732Z,0.70
2023-05-20T02:15:44.783Z,0.70
2023-05-20T02:16:47.724Z,0.63
2023-05-20T02:17:49.708Z,0.50
2023-05-20T02:18:53.075Z,0.67
2023-05-20T02:19:55.079Z,0.70
2023-05-20T02:20:56.931Z,0.80
2023-05-20T02:21:58.877Z,0.67
2023-05-20T02:23:00.660Z,0.70
2023-05-20T02:24:02.590Z,0.50
2023-05-20T02:25:05.086Z,0.70
2023-05-20T02:26:07.141Z,0.70
2023-05-20T02:27:09.341Z,0.80
2023-05-20T02:28:11.311Z,0.70
2023-05-20T02:29:13.271Z,0.60
2023-05-20T02:30:15.577Z,0.60
2023-05-20T02:31:17.828Z,0.60
2023-05-20T02:32:20.958Z,0.60
2023-05-20T02:33:23.004Z,0.70
2023-05-20T02:34:26.292Z,0.40
2023-05-20T02:35:28.365Z,0.73
2023-05-20T02:36:32.472Z,0.60
2023-05-20T02:37:34.532Z,0.90
2023-05-20T02:38:36.392Z,0.70
2023-05-20T02:39:38.316Z,0.67
2023-05-20T02:40:40.542Z,0.40
2023-05-20T02:41:42.448Z,0.70
2023-05-20T02:42:44.389Z,0.70
2023-05-20T02:43:46.376Z,0.60
2023-05-20T02:44:48.272Z,0.50
2023-05-20T02:45:50.265Z,0.70
2023-05-20T02:46:53.420Z,0.60
2023-05-20T02:47:55.590Z,0.70
2023-05-20T02:48:57.468Z,0.50
2023-05-20T02:49:59.451Z,0.70
2023-05-20T02:51:01.562Z,0.63
2023-05-20T02:52:04.547Z,0.70
2023-05-20T02:53:07.118Z,0.90
2023-05-20T02:54:09.183Z,0.47
2023-05-20T02:55:11.813Z,0.63
2023-05-20T02:56:13.947Z,0.77
2023-05-20T02:57:16.349Z,0.60
2023-05-20T02:58:18.268Z,0.63
2023-05-20T02:59:20.184Z,0.70
2023-05-20T03:00:23.587Z,0.60
2023-05-20T03:01:25.605Z,0.50
2023-05-20T03:02:27.854Z,0.80
2023-05-20T03:03:30.018Z,0.67
2023-05-20T03:04:32.287Z,0.80
2023-05-20T03:05:37.825Z,0.70
2023-05-20T03:06:44.410Z,0.50
2023-05-20T03:07:48.719Z,1.53
2023-05-20T03:08:51.210Z,0.60
2023-05-20T03:09:53.059Z,0.60
2023-05-20T03:10:55.017Z,0.60
2023-05-20T03:11:56.895Z,0.50
2023-05-20T03:12:58.735Z,0.70
2023-05-20T03:14:00.840Z,0.60
2023-05-20T03:15:03.972Z,0.67
2023-05-20T03:16:06.278Z,0.53
2023-05-20T03:17:09.678Z,0.50
2023-05-20T03:18:12.756Z,0.70
2023-05-20T03:19:14.882Z,0.63
2023-05-20T03:20:17.817Z,0.70
2023-05-20T03:21:20.012Z,0.40
2023-05-20T03:22:21.952Z,0.53
2023-05-20T03:23:23.964Z,0.60
2023-05-20T03:24:25.948Z,0.60
2023-05-20T03:25:27.944Z,0.43
2023-05-20T03:26:30.672Z,0.60
2023-05-20T03:27:32.489Z,0.60
2023-05-20T03:28:34.361Z,0.40
2023-05-20T03:29:36.193Z,1.00
2023-05-20T03:30:38.107Z,0.47
2023-05-20T03:31:40.168Z,0.60
2023-05-20T03:32:43.277Z,0.77
2023-05-20T03:33:46.224Z,1.27
2023-05-20T03:34:49.180Z,0.80
2023-05-20T03:35:51.279Z,0.67
2023-05-20T03:36:53.421Z,0.70
2023-05-20T03:37:55.356Z,0.60
2023-05-20T03:38:57.167Z,0.77
2023-05-20T03:39:59.105Z,0.50
2023-05-20T03:41:01.011Z,0.60
2023-05-20T03:42:02.917Z,0.50
2023-05-20T03:43:04.864Z,0.57
2023-05-20T03:44:06.822Z,0.63
2023-05-20T03:45:09.319Z,0.70
2023-05-20T03:46:11.386Z,0.60
2023-05-20T03:47:13.191Z,0.50
2023-05-20T03:48:15.125Z,0.70
2023-05-20T03:49:17.315Z,0.60
2023-05-20T03:50:19.308Z,0.60
2023-05-20T03:51:21.142Z,0.57
2023-05-20T03:52:23.630Z,0.70
2023-05-20T03:53:25.641Z,0.70
2023-05-20T03:54:28.142Z,0.60
2023-05-20T03:55:30.284Z,0.70
2023-05-20T03:56:32.149Z,0.40
2023-05-20T03:57:34.135Z,0.50
2023-05-20T03:58:38.601Z,0.50
2023-05-20T03:59:40.986Z,0.80
2023-05-20T04:00:43.019Z,0.70
2023-05-20T04:01:45.178Z,0.77
2023-05-20T04:02:47.451Z,0.40
2023-05-20T04:03:49.386Z,0.63
2023-05-20T04:04:57.666Z,1.90
2023-05-20T04:05:59.602Z,0.43
2023-05-20T04:07:01.586Z,0.60
2023-05-20T04:08:05.256Z,0.60
2023-05-20T04:09:07.120Z,0.73
2023-05-20T04:10:10.127Z,0.60
2023-05-20T04:11:12.083Z,0.60
2023-05-20T04:12:14.099Z,0.70
2023-05-20T04:13:16.371Z,0.67
2023-05-20T04:14:18.748Z,0.60
2023-05-20T04:15:23.868Z,0.60
2023-05-20T04:16:26.277Z,0.50
2023-05-20T04:17:30.287Z,0.70
2023-05-20T04:18:32.179Z,0.50
2023-05-20T04:19:35.089Z,0.73
2023-05-20T04:20:36.882Z,0.60
2023-05-20T04:21:40.213Z,0.47
2023-05-20T04:22:42.011Z,0.60
2023-05-20T04:23:44.088Z,0.67
2023-05-20T04:24:46.105Z,0.50
2023-05-20T04:25:49.077Z,0.40
2023-05-20T04:26:52.407Z,0.60
2023-05-20T04:27:54.277Z,0.43
2023-05-20T04:28:59.390Z,0.63
2023-05-20T04:30:02.660Z,0.60
2023-05-20T04:31:04.962Z,0.50
2023-05-20T04:32:08.022Z,0.60
2023-05-20T04:33:11.290Z,0.60
2023-05-20T04:34:15.238Z,0.93
2023-05-20T04:35:17.529Z,0.63
2023-05-20T04:36:19.344Z,0.70
2023-05-20T04:37:21.171Z,0.70
2023-05-20T04:38:23.248Z,0.50
2023-05-20T04:39:25.065Z,0.50
2023-05-20T04:40:27.475Z,0.70
2023-05-20T04:41:29.489Z,0.60
2023-05-20T04:42:31.370Z,0.70
2023-05-20T04:43:38.833Z,0.50
2023-05-20T04:44:42.287Z,0.50
2023-05-20T04:45:46.112Z,0.63
2023-05-20T04:46:48.271Z,0.50
2023-05-20T04:47:50.825Z,0.53
2023-05-20T04:48:53.948Z,0.60
2023-05-20T04:49:57.933Z,0.60
2023-05-20T04:51:00.072Z,0.60
2023-05-20T04:52:02.127Z,1.00
2023-05-20T04:53:04.434Z,0.43
2023-05-20T04:54:06.407Z,0.60
2023-05-20T04:55:10.565Z,0.60
2023-05-20T04:56:13.559Z,0.63
2023-05-20T04:57:15.426Z,0.80
2023-05-20T04:58:17.786Z,0.63
2023-05-20T04:59:19.668Z,0.60
2023-05-20T05:00:21.629Z,0.60
2023-05-20T05:01:23.530Z,0.30
2023-05-20T05:02:25.894Z,0.63
2023-05-20T05:03:28.100Z,0.60
2023-05-20T05:04:30.238Z,0.70
2023-05-20T05:05:32.363Z,0.40
2023-05-20T05:06:34.633Z,0.70
2023-05-20T05:07:36.605Z,0.70
2023-05-20T05:08:38.432Z,0.70
2023-05-20T05:09:40.329Z,0.60
2023-05-20T05:10:42.308Z,0.50
2023-05-20T05:11:44.245Z,0.83
2023-05-20T05:12:46.371Z,0.70
2023-05-20T05:13:48.275Z,0.67
2023-05-20T05:14:52.218Z,0.70
2023-05-20T05:16:01.472Z,0.70
2023-05-20T05:17:03.902Z,0.60
2023-05-20T05:18:06.258Z,0.60
2023-05-20T05:19:08.792Z,0.60
2023-05-20T05:20:11.146Z,0.63
2023-05-20T05:21:13.332Z,0.73
2023-05-20T05:22:15.258Z,0.70
2023-05-20T05:23:17.139Z,0.70
2023-05-20T05:24:19.107Z,0.80
2023-05-20T05:25:21.041Z,0.80
2023-05-20T05:26:22.916Z,0.87
2023-05-20T05:27:24.788Z,0.50
2023-05-20T05:28:26.712Z,0.50
2023-05-20T05:29:28.830Z,0.60
2023-05-20T05:30:30.779Z,0.57
2023-05-20T05:31:32.620Z,0.60
2023-05-20T05:32:35.329Z,0.80
2023-05-20T05:33:37.496Z,0.70
2023-05-20T05:34:39.483Z,0.73
2023-05-20T05:35:44.516Z,1.07
2023-05-20T05:36:46.737Z,0.63
2023-05-20T05:37:48.613Z,0.50
2023-05-20T05:38:51.038Z,0.70
2023-05-20T05:39:53.265Z,0.77
2023-05-20T05:40:55.092Z,0.60
2023-05-20T05:41:56.933Z,0.70
2023-05-20T05:42:58.951Z,0.60
2023-05-20T05:44:01.195Z,0.63
2023-05-20T05:45:03.279Z,0.70
2023-05-20T05:46:05.326Z,0.70
2023-05-20T05:47:07.855Z,0.80
2023-05-20T05:48:10.027Z,0.77
2023-05-20T05:49:12.089Z,0.60
2023-05-20T05:50:14.261Z,0.60
2023-05-20T05:51:16.306Z,0.70
2023-05-20T05:52:18.311Z,0.50
2023-05-20T05:53:20.199Z,0.80
2023-05-20T05:54:22.191Z,0.80
2023-05-20T05:55:24.503Z,0.70
2023-05-20T05:56:26.343Z,0.93
2023-05-20T05:57:28.340Z,0.80
2023-05-20T05:58:30.437Z,0.93
2023-05-20T05:59:32.338Z,0.60
2023-05-20T06:00:34.716Z,0.63
2023-05-20T06:01:37.716Z,0.70
2023-05-20T06:02:39.855Z,0.80
2023-05-20T06:03:42.069Z,0.60
2023-05-20T06:04:44.224Z,0.50
2023-05-20T06:05:47.435Z,0.47
2023-05-20T06:06:49.630Z,0.57
2023-05-20T06:07:53.967Z,0.70
2023-05-20T06:08:56.028Z,0.50
2023-05-20T06:09:58.718Z,1.00
2023-05-20T06:11:00.659Z,0.60
2023-05-20T06:12:02.991Z,0.70
2023-05-20T06:13:04.865Z,0.63
2023-05-20T06:14:06.678Z,0.50
2023-05-20T06:15:09.458Z,0.70
2023-05-20T06:16:11.360Z,0.50
2023-05-20T06:17:13.295Z,0.70
2023-05-20T06:18:15.313Z,0.47
2023-05-20T06:19:17.189Z,1.27
2023-05-20T06:20:19.412Z,0.67
2023-05-20T06:21:21.313Z,0.60
2023-05-20T06:22:23.230Z,0.70
2023-05-20T06:23:25.633Z,0.80
2023-05-20T06:24:27.507Z,0.50
2023-05-20T06:25:29.588Z,0.60
2023-05-20T06:26:31.662Z,0.60
2023-05-20T06:27:33.679Z,0.40
2023-05-20T06:28:35.617Z,0.40
2023-05-20T06:29:37.773Z,0.53
2023-05-20T06:30:39.627Z,0.30
2023-05-20T06:31:41.428Z,0.60
2023-05-20T06:32:43.621Z,0.63
2023-05-20T06:33:46.229Z,0.63
2023-05-20T06:34:48.064Z,0.50
2023-05-20T06:35:49.922Z,0.53
2023-05-20T06:36:51.773Z,0.53
2023-05-20T06:37:54.031Z,0.63
2023-05-20T06:38:56.113Z,0.90
2023-05-20T06:39:58.130Z,0.70
2023-05-20T06:41:00.024Z,0.43
2023-05-20T06:42:01.863Z,0.50
2023-05-20T06:43:03.722Z,0.40
2023-05-20T06:44:07.262Z,0.50
2023-05-20T06:45:10.560Z,0.50
2023-05-20T06:46:12.537Z,0.53
2023-05-20T06:47:18.353Z,0.50
2023-05-20T06:48:20.267Z,0.53
2023-05-20T06:49:22.538Z,1.63
2023-05-20T06:50:25.142Z,0.60
2023-05-20T06:51:28.627Z,0.50
2023-05-20T06:52:30.481Z,0.60
2023-05-20T06:53:32.638Z,0.53
2023-05-20T06:54:39.928Z,0.87
2023-05-20T06:55:41.794Z,0.53
2023-05-20T06:56:44.392Z,0.33
2023-05-20T06:57:46.433Z,0.97
2023-05-20T06:58:48.620Z,2.07
2023-05-20T06:59:51.979Z,2.70
2023-05-20T07:00:53.896Z,3.23
2023-05-20T07:01:55.940Z,3.20
2023-05-20T07:02:57.906Z,3.40
2023-05-20T07:04:00.087Z,3.00
2023-05-20T07:05:02.000Z,3.20
2023-05-20T07:06:03.838Z,3.37
2023-05-20T07:07:05.900Z,3.20
2023-05-20T07:08:08.212Z,2.93
2023-05-20T07:09:10.119Z,3.33
2023-05-20T07:10:14.599Z,3.13
2023-05-20T07:11:16.468Z,3.47
2023-05-20T07:12:19.715Z,3.13
2023-05-20T07:13:24.382Z,2.70
2023-05-20T07:14:26.368Z,3.57
2023-05-20T07:15:28.556Z,3.63
2023-05-20T07:16:32.535Z,3.10
2023-05-20T07:17:35.168Z,3.13
2023-05-20T07:18:37.096Z,4.20
2023-05-20T07:19:39.169Z,3.70
2023-05-20T07:20:41.239Z,3.20
2023-05-20T07:21:43.136Z,3.67
2023-05-20T07:22:45.168Z,3.33
2023-05-20T07:23:47.019Z,4.50
2023-05-20T07:24:48.963Z,3.93
2023-05-20T07:25:51.792Z,3.90
2023-05-20T07:26:53.730Z,3.40
2023-05-20T07:27:55.985Z,3.63
2023-05-20T07:28:57.924Z,4.23
2023-05-20T07:29:59.737Z,3.57
2023-05-20T07:31:01.696Z,3.47
2023-05-20T07:32:05.395Z,3.70
2023-05-20T07:33:07.487Z,3.90
2023-05-20T07:34:09.667Z,3.53
2023-05-20T07:35:11.531Z,3.23
2023-05-20T07:36:13.448Z,3.57
2023-05-20T07:37:16.221Z,3.23
2023-05-20T07:38:18.157Z,3.40
2023-05-20T07:39:20.285Z,2.93
2023-05-20T07:40:22.146Z,2.80
2023-05-20T07:41:24.167Z,4.87
2023-05-20T07:42:26.229Z,2.97
2023-05-20T07:43:28.561Z,2.93
2023-05-20T07:44:30.836Z,2.97
2023-05-20T07:45:33.026Z,2.50
2023-05-20T07:46:35.987Z,2.77
2023-05-20T07:47:39.484Z,2.97
2023-05-20T07:48:41.669Z,2.47
2023-05-20T07:49:47.221Z,2.27
2023-05-20T07:50:49.468Z,2.43
2023-05-20T07:51:51.898Z,2.10
2023-05-20T07:52:56.836Z,2.20
2023-05-20T07:53:59.013Z,2.20
2023-05-20T07:55:01.078Z,2.07
2023-05-20T07:56:03.446Z,1.90
2023-05-20T07:57:05.978Z,2.60
2023-05-20T07:58:08.112Z,3.20
2023-05-20T07:59:10.191Z,2.37
2023-05-20T08:00:13.437Z,2.23
2023-05-20T08:01:15.517Z,1.93
2023-05-20T08:02:17.760Z,2.60
2023-05-20T08:03:19.764Z,2.60
2023-05-20T08:04:22.128Z,2.10
2023-05-20T08:05:24.072Z,2.60
2023-05-20T08:06:28.696Z,2.40
2023-05-20T08:07:32.071Z,2.50
2023-05-20T08:08:34.762Z,2.43
2023-05-20T08:09:36.939Z,2.30
2023-05-20T08:10:38.967Z,2.00
2023-05-20T08:11:41.141Z,1.83
2023-05-20T08:12:42.967Z,1.90
2023-05-20T08:13:44.892Z,1.90
2023-05-20T08:14:46.753Z,3.27
2023-05-20T08:15:49.068Z,2.23
2023-05-20T08:16:53.875Z,2.00
2023-05-20T08:17:56.953Z,2.77
2023-05-20T08:18:58.884Z,2.57
2023-05-20T08:20:02.089Z,2.20
2023-05-20T08:21:08.146Z,2.17
2023-05-20T08:22:10.280Z,2.03
2023-05-20T08:23:12.430Z,2.20
2023-05-20T08:24:14.605Z,2.20
2023-05-20T08:25:16.590Z,1.90
2023-05-20T08:26:18.818Z,1.93
2023-05-20T08:27:20.743Z,1.77
2023-05-20T08:28:22.804Z,1.70
2023-05-20T08:29:24.754Z,2.10
2023-05-20T08:30:27.552Z,3.77
2023-05-20T08:31:29.826Z,1.90
2023-05-20T08:32:32.019Z,2.43
2023-05-20T08:33:34.158Z,3.50
2023-05-20T08:34:36.863Z,3.67
2023-05-20T08:35:40.980Z,2.00
2023-05-20T08:36:45.169Z,2.30
2023-05-20T08:37:47.008Z,1.97
2023-05-20T08:38:49.344Z,3.20
2023-05-20T08:39:52.990Z,1.63
2023-05-20T08:40:57.398Z,2.20
2023-05-20T08:41:59.550Z,1.50
2023-05-20T08:43:02.088Z,2.10
2023-05-20T08:44:06.313Z,2.63
2023-05-20T08:45:12.554Z,2.07
2023-05-20T08:46:17.414Z,1.90
2023-05-20T08:47:22.401Z,1.93
2023-05-20T08:48:27.907Z,2.37
2023-05-20T08:49:30.222Z,2.13
2023-05-20T08:50:32.200Z,1.67
2023-05-20T08:51:37.702Z,2.33
2023-05-20T08:52:46.381Z,2.00
2023-05-20T08:53:48.305Z,1.60
2023-05-20T08:54:52.230Z,2.00
2023-05-20T08:56:02.988Z,1.60
2023-05-20T08:57:05.833Z,2.27
2023-05-20T08:58:08.014Z,1.70
2023-05-20T08:59:10.387Z,1.80
2023-05-20T09:00:17.166Z,1.70
2023-05-20T09:01:23.673Z,2.00
2023-05-20T09:02:25.906Z,1.83
2023-05-20T09:03:28.601Z,1.50
2023-05-20T09:04:30.939Z,1.77
2023-05-20T09:05:33.581Z,1.90
2023-05-20T09:06:47.202Z,1.60
2023-05-20T09:07:49.744Z,1.90
2023-05-20T09:08:52.649Z,1.60
2023-05-20T09:09:54.491Z,1.60
2023-05-20T09:10:56.701Z,1.57
2023-05-20T09:11:59.747Z,1.80
2023-05-20T09:13:04.508Z,1.83
2023-05-20T09:14:06.656Z,3.80
2023-05-20T09:15:09.699Z,1.90
2023-05-20T09:16:11.824Z,1.90
2023-05-20T09:17:14.700Z,1.90
2023-05-20T09:18:16.681Z,1.60
2023-05-20T09:19:22.634Z,1.80
2023-05-20T09:20:26.714Z,2.00
2023-05-20T09:21:29.948Z,1.87
2023-05-20T09:22:32.077Z,1.80
2023-05-20T09:23:37.228Z,1.83
2023-05-20T09:24:41.428Z,1.50
2023-05-20T09:25:43.598Z,1.80
2023-05-20T09:26:46.165Z,1.90
2023-05-20T09:27:47.981Z,1.90
2023-05-20T09:28:50.141Z,1.50
2023-05-20T09:29:52.293Z,1.73
2023-05-20T09:30:59.834Z,2.03
2023-05-20T09:32:04.092Z,6.33
2023-05-20T09:33:07.777Z,5.77
2023-05-20T09:34:10.050Z,13.87
2023-05-20T09:35:16.113Z,18.77
2023-05-20T09:36:20.340Z,22.17
2023-05-20T09:37:26.258Z,35.20
2023-05-20T09:38:35.497Z,20.87
2023-05-20T09:40:00.260Z,16.63
2023-05-20T09:41:08.331Z,18.73
2023-05-20T09:42:24.177Z,21.17
2023-05-20T09:43:26.271Z,20.27
2023-05-20T09:44:29.033Z,26.00
2023-05-20T09:45:31.402Z,15.17
2023-05-20T09:46:34.613Z,23.23
2023-05-20T09:47:41.027Z,21.10
2023-05-20T09:48:44.793Z,22.40
2023-05-20T09:49:49.841Z,11.47
2023-05-20T09:50:52.840Z,10.37
2023-05-20T09:51:57.271Z,7.80
2023-05-20T09:53:05.016Z,15.60
2023-05-20T09:54:09.026Z,6.07
2023-05-20T09:55:11.661Z,6.57
2023-05-20T09:56:14.285Z,4.93
2023-05-20T09:57:16.405Z,6.83
2023-05-20T09:58:20.777Z,10.30
2023-05-20T09:59:24.114Z,7.77
2023-05-20T10:00:26.239Z,9.50
2023-05-20T10:01:28.318Z,7.87
2023-05-20T10:02:31.209Z,9.57
2023-05-20T10:03:34.453Z,6.83
2023-05-20T10:04:44.879Z,11.03
2023-05-20T10:06:34.190Z,9.20
2023-05-20T10:08:21.871Z,10.00
2023-05-20T10:09:56.750Z,6.20
2023-05-20T10:11:36.037Z,10.03
2023-05-20T10:12:58.783Z,8.57
2023-05-20T10:14:25.176Z,6.50
2023-05-20T10:16:12.687Z,8.40
2023-05-20T10:17:37.890Z,5.63
2023-05-20T10:19:10.163Z,6.13
2023-05-20T10:20:12.463Z,5.63
2023-05-20T10:21:22.675Z,7.33
2023-05-20T10:22:29.819Z,9.90
2023-05-20T10:23:31.769Z,8.17
2023-05-20T10:24:42.869Z,6.60
2023-05-20T10:25:53.333Z,6.23
2023-05-20T10:26:56.224Z,7.20
2023-05-20T10:28:09.190Z,4.60
2023-05-20T10:29:22.713Z,6.07
2023-05-20T10:30:24.709Z,5.63
2023-05-20T10:31:27.671Z,5.93
2023-05-20T10:32:32.487Z,7.00
2023-05-20T10:33:45.934Z,4.80
2023-05-20T10:34:51.212Z,5.37
2023-05-20T10:35:54.899Z,7.63
2023-05-20T10:36:57.612Z,6.50
2023-05-20T10:38:12.147Z,6.07
2023-05-20T10:39:18.963Z,4.17
2023-05-20T10:40:23.179Z,5.53
2023-05-20T10:41:30.275Z,9.23
2023-05-20T10:42:32.115Z,5.27
2023-05-20T10:43:34.176Z,6.33
2023-05-20T10:44:49.445Z,4.17
2023-05-20T10:45:57.655Z,4.90
2023-05-20T10:47:21.035Z,4.53
2023-05-20T10:48:32.143Z,4.67
2023-05-20T10:49:36.105Z,7.90
2023-05-20T10:50:41.051Z,4.60
2023-05-20T10:51:47.128Z,4.57
2023-05-20T10:52:49.014Z,2.97
2023-05-20T10:53:57.976Z,2.93
2023-05-20T10:55:01.492Z,4.17
2023-05-20T10:56:04.062Z,5.23
2023-05-20T10:57:09.701Z,3.83
2023-05-20T10:58:12.101Z,3.53
2023-05-20T10:59:14.303Z,3.40
2023-05-20T11:00:16.712Z,5.93
2023-05-20T11:01:19.583Z,5.10
2023-05-20T11:02:29.205Z,6.57
2023-05-20T11:03:32.218Z,3.77
2023-05-20T11:04:34.821Z,3.63
2023-05-20T11:05:39.640Z,3.23
2023-05-20T11:06:53.644Z,5.37
2023-05-20T11:08:20.680Z,3.00
2023-05-20T11:09:31.429Z,4.77
2023-05-20T11:10:36.262Z,4.70
2023-05-20T11:11:38.695Z,6.97
2023-05-20T11:12:40.642Z,3.47
2023-05-20T11:13:42.640Z,4.93
2023-05-20T11:14:44.675Z,11.50
2023-05-20T11:15:49.882Z,4.37
2023-05-20T11:16:53.699Z,4.10
2023-05-20T11:17:57.066Z,2.93
2023-05-20T11:18:59.255Z,2.77
2023-05-20T11:20:01.342Z,4.63
2023-05-20T11:21:03.665Z,3.27
2023-05-20T11:22:08.461Z,4.30
2023-05-20T11:23:15.606Z,4.03
2023-05-20T11:24:27.154Z,5.43
2023-05-20T11:25:29.898Z,4.13
2023-05-20T11:26:31.992Z,5.00
2023-05-20T11:27:34.318Z,4.67
2023-05-20T11:28:36.679Z,6.00
2023-05-20T11:29:40.710Z,5.57
2023-05-20T11:30:43.777Z,3.73
2023-05-20T11:31:48.580Z,2.87
2023-05-20T11:33:17.863Z,7.43
2023-05-20T11:34:25.942Z,4.07
2023-05-20T11:35:32.300Z,3.00
2023-05-20T11:36:34.194Z,3.90
2023-05-20T11:37:37.072Z,6.10
2023-05-20T11:38:41.918Z,4.17
2023-05-20T11:39:44.473Z,6.10
2023-05-20T11:40:56.631Z,5.97
2023-05-20T11:41:59.233Z,4.20
2023-05-20T11:43:03.915Z,2.83
2023-05-20T11:44:14.326Z,2.57
2023-05-20T11:45:17.393Z,2.23
2023-05-20T11:46:21.768Z,3.23
2023-05-20T11:47:29.702Z,4.50
2023-05-20T11:48:31.784Z,2.73
2023-05-20T11:49:40.424Z,3.47
2023-05-20T11:50:45.173Z,3.50
2023-05-20T11:51:47.079Z,2.37
2023-05-20T11:52:58.790Z,2.97
2023-05-20T11:54:07.194Z,3.87
2023-05-20T11:55:12.239Z,2.40
2023-05-20T11:56:14.884Z,2.23
2023-05-20T11:57:16.828Z,2.63
2023-05-20T11:58:30.210Z,2.40
2023-05-20T11:59:32.839Z,2.57
2023-05-20T12:00:49.336Z,2.63
2023-05-20T12:01:52.427Z,3.50
2023-05-20T12:02:54.403Z,2.40
2023-05-20T12:03:57.337Z,2.50
2023-05-20T12:04:59.558Z,2.40
2023-05-20T12:06:03.372Z,3.60
2023-05-20T12:07:09.289Z,2.03
2023-05-20T12:08:11.400Z,3.43
2023-05-20T12:09:14.008Z,3.87
2023-05-20T12:10:16.140Z,2.37
2023-05-20T12:11:18.312Z,3.43
2023-05-20T12:12:20.626Z,3.57
2023-05-20T12:13:24.151Z,2.50
2023-05-20T12:14:26.264Z,2.67
2023-05-20T12:15:28.109Z,2.37
2023-05-20T12:16:33.541Z,2.57
2023-05-20T12:17:51.121Z,3.10
2023-05-20T12:18:53.190Z,2.33
2023-05-20T12:19:55.289Z,3.43
2023-05-20T12:20:57.227Z,2.20
2023-05-20T12:21:59.159Z,2.20
2023-05-20T12:23:02.010Z,2.43
2023-05-20T12:24:06.847Z,2.10
2023-05-20T12:25:12.163Z,3.03
2023-05-20T12:26:14.162Z,1.97
2023-05-20T12:27:16.029Z,2.57
2023-05-20T12:28:17.922Z,2.47
2023-05-20T12:29:19.848Z,2.37
2023-05-20T12:30:23.644Z,2.10
2023-05-20T12:31:26.513Z,2.20
2023-05-20T12:32:28.417Z,2.80
2023-05-20T12:33:30.550Z,1.90
2023-05-20T12:34:33.625Z,1.77
2023-05-20T12:35:41.927Z,2.50
2023-05-20T12:36:47.075Z,2.20
2023-05-20T12:37:49.305Z,1.93
2023-05-20T12:38:51.152Z,2.20
2023-05-20T12:39:53.049Z,2.50
2023-05-20T12:40:54.970Z,2.40
2023-05-20T12:41:56.809Z,2.60
2023-05-20T12:42:59.865Z,1.97
2023-05-20T12:44:01.751Z,1.90
2023-05-20T12:45:04.381Z,2.07
2023-05-20T12:46:06.891Z,1.80
2023-05-20T12:47:09.686Z,1.80
2023-05-20T12:48:11.669Z,2.00
2023-05-20T12:49:13.896Z,1.50
2023-05-20T12:50:16.037Z,1.73
2023-05-20T12:51:19.468Z,2.10
2023-05-20T12:52:22.769Z,1.97
2023-05-20T12:53:24.852Z,2.10
2023-05-20T12:54:29.651Z,2.43
2023-05-20T12:55:31.588Z,1.90
2023-05-20T12:56:33.546Z,1.97
2023-05-20T12:57:35.607Z,3.00
2023-05-20T12:58:37.513Z,2.63
2023-05-20T12:59:39.328Z,1.87
2023-05-20T13:00:41.357Z,2.30
2023-05-20T13:01:43.376Z,2.13
2023-05-20T13:02:45.493Z,2.27
2023-05-20T13:03:48.106Z,2.10
2023-05-20T13:04:50.002Z,2.17
2023-05-20T13:05:52.157Z,2.10
2023-05-20T13:06:54.491Z,2.13
2023-05-20T13:07:56.657Z,2.07
2023-05-20T13:08:58.809Z,1.90
2023-05-20T13:10:01.151Z,1.90
2023-05-20T13:11:03.006Z,1.73
2023-05-20T13:12:05.366Z,1.67
2023-05-20T13:13:07.151Z,1.80
2023-05-20T13:14:09.235Z,2.17
2023-05-20T13:15:12.529Z,1.57
2023-05-20T13:16:16.917Z,1.77
2023-05-20T13:17:19.327Z,1.93
2023-05-20T13:18:21.451Z,1.77
2023-05-20T13:19:24.014Z,1.93
2023-05-20T13:20:26.008Z,1.87
2023-05-20T13:21:28.010Z,1.80
2023-05-20T13:22:29.954Z,1.60
2023-05-20T13:23:31.790Z,1.80
2023-05-20T13:24:35.167Z,1.40
2023-05-20T13:25:37.227Z,2.10
2023-05-20T13:26:39.766Z,2.00
2023-05-20T13:27:41.694Z,2.13
2023-05-20T13:28:43.595Z,1.60
2023-05-20T13:29:46.076Z,1.77
2023-05-20T13:30:48.296Z,2.00
2023-05-20T13:31:50.343Z,1.50
2023-05-20T13:32:52.289Z,1.80
2023-05-20T13:33:55.370Z,2.03
2023-05-20T13:34:58.900Z,2.10
2023-05-20T13:36:01.038Z,2.27
2023-05-20T13:37:03.309Z,2.30
2023-05-20T13:38:05.374Z,1.87
2023-05-20T13:39:07.478Z,1.93
2023-05-20T13:40:09.974Z,2.03
2023-05-20T13:41:11.860Z,1.80
2023-05-20T13:42:14.022Z,2.00
2023-05-20T13:43:16.265Z,1.97
2023-05-20T13:44:18.206Z,2.03
2023-05-20T13:45:20.095Z,1.60
2023-05-20T13:46:22.406Z,1.85
2023-05-20T13:47:24.342Z,1.87
2023-05-20T13:48:26.730Z,1.50
2023-05-20T13:49:28.979Z,1.70
2023-05-20T13:50:30.869Z,2.30
2023-05-20T13:51:34.155Z,2.20
2023-05-20T13:52:36.100Z,1.67
2023-05-20T13:53:38.993Z,2.40
2023-05-20T13:54:43.059Z,1.70
2023-05-20T13:55:44.999Z,1.57
2023-05-20T13:56:47.106Z,1.80
2023-05-20T13:57:49.118Z,2.07
2023-05-20T13:58:51.157Z,1.80
2023-05-20T13:59:53.133Z,1.93
2023-05-20T14:00:55.001Z,1.60
2023-05-20T14:01:57.129Z,2.00
2023-05-20T14:03:00.879Z,1.65
2023-05-20T14:04:03.069Z,2.10
2023-05-20T14:05:07.502Z,1.77
2023-05-20T14:06:09.836Z,1.70